Time;durP1;ratioP1;P1;durP2;ratioP2;P2;SDS_P1;SDS_P2;PMS_P1;PMS_P2;Temp;Humidity;BMP_temperature;BMP_pressure;BME280_temperature;BME280_humidity;BME280_pressure;Samples;Min_cycle;Max_cycle;Signal;HPM_P1;HPM_P2
2023/02/03 00:00:19;;;;;;;6.40;2.30;;;;;;;6.85;49.35;99227.97;5060179;28;20043;-64
2023/02/03 00:02:44;;;;;;;5.65;2.00;;;;;;;6.69;49.43;99218.66;5078111;28;20040;-65
2023/02/03 00:05:10;;;;;;;4.97;2.00;;;;;;;6.48;50.46;99209.78;5074475;28;20090;-64
2023/02/03 00:07:36;;;;;;;7.10;2.25;;;;;;;6.54;50.31;99219.72;5044621;28;20123;-65
2023/02/03 00:10:03;;;;;;;7.28;2.30;;;;;;;6.39;51.11;99221.59;5048504;28;20113;-65
2023/02/03 00:12:29;;;;;;;7.85;2.17;;;;;;;6.37;51.42;99205.38;5084171;28;20036;-65
2023/02/03 00:14:54;;;;;;;7.65;2.40;;;;;;;6.34;51.53;99205.56;5039771;28;20364;-65
2023/02/03 00:17:20;;;;;;;6.70;2.38;;;;;;;6.35;52.31;99194.28;5081578;28;20474;-65
2023/02/03 00:19:45;;;;;;;6.38;2.20;;;;;;;6.29;52.41;99210.22;5082833;28;20098;-64
2023/02/03 00:22:11;;;;;;;6.88;2.30;;;;;;;6.14;52.59;99205.13;5063619;28;20071;-65
2023/02/03 00:24:36;;;;;;;9.52;3.92;;;;;;;5.88;55.88;99206.84;5079674;28;20030;-64
2023/02/03 00:27:02;;;;;;;7.78;3.35;;;;;;;5.91;58.39;99177.41;5059983;28;20039;-64
2023/02/03 00:29:27;;;;;;;7.18;2.03;;;;;;;6.13;58.42;99200.06;5078360;28;20047;-64
2023/02/03 00:31:53;;;;;;;7.45;3.10;;;;;;;6.19;55.86;99196.25;5060880;28;20032;-64
2023/02/03 00:34:18;;;;;;;6.03;2.35;;;;;;;6.27;55.20;99201.75;5042661;28;20044;-65
2023/02/03 00:36:46;;;;;;;6.95;2.40;;;;;;;6.38;54.74;99203.63;5061567;28;20097;-64
2023/02/03 00:39:13;;;;;;;6.20;2.25;;;;;;;6.18;55.72;99203.19;5066528;28;20382;-64
2023/02/03 00:41:38;;;;;;;6.57;2.70;;;;;;;6.01;60.16;99213.81;5066849;28;20081;-64
2023/02/03 00:44:04;;;;;;;7.93;3.03;;;;;;;5.92;62.63;99203.13;5073800;28;20036;-65
2023/02/03 00:46:29;;;;;;;7.28;3.20;;;;;;;5.78;62.79;99156.75;5060607;28;20670;-64
2023/02/03 00:48:55;;;;;;;6.80;3.20;;;;;;;6.12;61.82;99201.84;5063673;28;20043;-65
2023/02/03 00:51:20;;;;;;;6.53;2.95;;;;;;;6.19;62.77;99212.59;5064159;28;20035;-64
2023/02/03 00:53:47;;;;;;;6.88;2.72;;;;;;;6.28;62.77;99211.13;5066226;28;20016;-64
2023/02/03 00:56:12;;;;;;;6.18;2.90;;;;;;;6.27;61.68;99214.66;5080188;28;20118;-66
2023/02/03 00:58:41;;;;;;;6.43;2.60;;;;;;;6.25;61.45;99209.59;5081227;28;20308;-65
2023/02/03 01:01:06;;;;;;;7.68;3.20;;;;;;;6.17;62.17;99204.13;5065341;28;20027;-65
2023/02/03 01:03:32;;;;;;;6.32;2.30;;;;;;;6.19;59.59;99197.09;5043925;28;20032;-64
2023/02/03 01:06:16;;;;;;;7.40;2.50;;;;;;;5.96;62.51;99173.63;5062130;28;20028;-64
2023/02/03 01:08:41;;;;;;;6.45;2.20;;;;;;;6.15;61.77;99218.88;5056901;28;20078;-65
2023/02/03 01:11:09;;;;;;;6.93;1.92;;;;;;;6.14;58.48;99223.22;5078408;28;20465;-65
2023/02/03 01:13:35;;;;;;;5.18;1.88;;;;;;;5.86;62.53;99180.31;5066276;28;20097;-64
2023/02/03 01:16:01;;;;;;;7.40;1.80;;;;;;;6.01;62.03;99224.97;5064570;28;20466;-64
2023/02/03 01:18:26;;;;;;;5.65;1.70;;;;;;;5.90;68.91;99229.97;5082585;28;20032;-64
2023/02/03 01:20:52;;;;;;;4.80;1.40;;;;;;;5.97;67.74;99226.91;5063064;28;20340;-63
2023/02/03 01:23:17;;;;;;;3.83;1.45;;;;;;;5.65;66.07;99172.19;5069837;28;20700;-63
2023/02/03 01:25:43;;;;;;;4.18;1.23;;;;;;;5.99;65.57;99225.97;5062931;28;20740;-63
2023/02/03 01:28:08;;;;;;;6.20;2.78;;;;;;;6.09;63.91;99221.88;5046779;28;20518;-64
2023/02/03 01:30:34;;;;;;;3.78;1.35;;;;;;;6.18;58.57;99223.03;5083827;28;20035;-63
2023/02/03 01:32:59;;;;;;;3.65;1.30;;;;;;;6.23;60.62;99219.19;5065612;28;20024;-63
2023/02/03 01:35:25;;;;;;;3.03;1.08;;;;;;;6.23;57.89;99218.38;5077801;28;20030;-63
2023/02/03 01:37:51;;;;;;;3.38;1.08;;;;;;;6.02;54.15;99184.47;5063671;28;20032;-63
2023/02/03 01:40:17;;;;;;;3.28;1.17;;;;;;;6.44;50.31;99210.94;5067796;28;20028;-63
2023/02/03 01:42:43;;;;;;;3.33;1.15;;;;;;;6.78;48.00;99230.16;5061384;28;20486;-63
2023/02/03 01:45:10;;;;;;;3.20;0.90;;;;;;;7.07;46.12;99212.59;5072844;28;20040;-64
2023/02/03 01:47:41;;;;;;;2.88;0.90;;;;;;;6.97;46.83;99192.66;5065443;28;20599;-64
2023/02/03 01:50:13;;;;;;;5.78;0.98;;;;;;;6.78;46.83;99162.94;5078397;28;20031;-64
2023/02/03 01:52:40;;;;;;;2.55;0.85;;;;;;;7.14;46.42;99215.59;5074900;28;20028;-64
2023/02/03 01:55:09;;;;;;;3.58;1.10;;;;;;;7.20;47.63;99216.94;5061668;28;20037;-64
2023/02/03 01:57:44;;;;;;;3.85;1.50;;;;;;;7.16;48.74;99220.66;5066984;28;20047;-64
2023/02/03 02:00:10;;;;;;;3.63;1.15;;;;;;;7.17;50.41;99217.13;5055839;28;20039;-64
2023/02/03 02:02:35;;;;;;;3.65;1.17;;;;;;;7.11;50.35;99219.22;5077681;28;20036;-64
2023/02/03 02:05:04;;;;;;;3.80;1.20;;;;;;;7.14;49.07;99215.59;5063001;28;20028;-64
2023/02/03 02:07:31;;;;;;;3.85;1.35;;;;;;;7.01;49.17;99214.78;5082169;28;20060;-64
2023/02/03 02:09:56;;;;;;;3.65;1.17;;;;;;;7.08;48.55;99216.84;5060026;28;20565;-64
2023/02/03 02:12:22;;;;;;;3.85;1.23;;;;;;;7.17;46.90;99206.78;5047357;28;20051;-64
2023/02/03 02:14:47;;;;;;;3.25;1.00;;;;;;;7.14;46.32;99200.09;5047299;28;20461;-64
2023/02/03 02:17:36;;;;;;;3.00;0.95;;;;;;;7.29;47.18;99205.91;5061128;28;20035;-65
2023/02/03 02:20:29;;;;;;;4.90;0.90;;;;;;;7.31;47.27;99204.06;5067072;28;20051;-64
2023/02/03 02:23:21;;;;;;;2.92;0.90;;;;;;;7.37;46.20;99195.84;5078030;28;20125;-64
2023/02/03 02:26:07;;;;;;;4.25;1.40;;;;;;;7.51;44.84;99195.69;5076779;28;20040;-64
2023/02/03 02:28:55;;;;;;;5.32;1.20;;;;;;;7.50;45.13;99188.03;5077898;28;20024;-64
2023/02/03 02:31:56;;;;;;;4.38;1.45;;;;;;;7.48;45.58;99182.97;5062648;28;20020;-64
2023/02/03 02:34:35;;;;;;;3.22;0.88;;;;;;;7.36;47.27;99186.44;5077710;28;20032;-64
2023/02/03 02:37:06;;;;;;;5.20;1.83;;;;;;;7.27;48.40;99189.69;5060364;28;20031;-64
2023/02/03 02:39:41;;;;;;;4.63;1.40;;;;;;;7.24;47.52;99185.53;5080749;28;20059;-64
2023/02/03 02:42:22;;;;;;;5.18;1.27;;;;;;;7.12;49.12;99179.50;5081686;28;20027;-64
2023/02/03 02:44:51;;;;;;;4.97;1.45;;;;;;;7.14;48.47;99187.16;5064357;28;20055;-64
2023/02/03 02:47:19;;;;;;;3.10;1.08;;;;;;;6.84;49.81;99139.22;5056306;28;20032;-64
2023/02/03 02:50:02;;;;;;;2.97;1.10;;;;;;;7.10;48.65;99201.22;5046343;28;20492;-64
2023/02/03 02:52:31;;;;;;;3.00;1.05;;;;;;;7.03;48.33;99184.50;5056010;28;20491;-64
2023/02/03 02:55:00;;;;;;;3.20;1.17;;;;;;;7.09;49.67;99194.41;5065435;28;20103;-64
2023/02/03 02:57:26;;;;;;;4.03;1.13;;;;;;;7.04;50.09;99202.47;5044910;28;20553;-64
2023/02/03 02:59:52;;;;;;;3.80;1.38;;;;;;;7.01;49.90;99184.59;5066648;28;20035;-64
2023/02/03 03:02:18;;;;;;;3.28;1.23;;;;;;;6.88;51.29;99201.88;5065096;28;20035;-64
2023/02/03 03:04:45;;;;;;;4.25;1.10;;;;;;;6.85;50.98;99202.94;5061937;28;20032;-64
2023/02/03 03:07:18;;;;;;;3.83;1.23;;;;;;;6.69;51.38;99187.66;5064449;28;20024;-64
2023/02/03 03:09:47;;;;;;;3.20;1.10;;;;;;;6.95;50.97;99215.22;5065011;28;20728;-64
2023/02/03 03:12:41;;;;;;;3.05;1.00;;;;;;;7.16;48.87;99215.50;5082325;28;20028;-64
2023/02/03 03:15:11;;;;;;;3.45;0.90;;;;;;;6.98;47.77;99177.06;5059114;28;20078;-64
2023/02/03 03:17:40;;;;;;;3.10;0.98;;;;;;;7.33;45.26;99215.09;5084451;28;20039;-64
2023/02/03 03:20:10;;;;;;;2.25;0.70;;;;;;;7.39;47.24;99221.59;5081737;28;20020;-65
2023/02/03 03:22:41;;;;;;;2.03;0.63;;;;;;;7.72;42.61;99220.97;5061606;28;20035;-65
2023/02/03 03:25:15;;;;;;;2.97;1.05;;;;;;;7.57;45.91;99235.81;5068220;28;20602;-64
2023/02/03 03:27:51;;;;;;;2.35;0.70;;;;;;;7.61;44.33;99232.09;5066791;28;20483;-65
2023/02/03 03:30:21;;;;;;;2.65;0.80;;;;;;;7.74;45.66;99224.25;5066555;28;20019;-65
2023/02/03 03:32:47;;;;;;;3.58;1.10;;;;;;;7.04;50.39;99197.28;5059288;28;20057;-65
2023/02/03 03:35:13;;;;;;;3.50;0.88;;;;;;;7.02;52.97;99242.31;5059063;28;20077;-65
2023/02/03 03:37:39;;;;;;;3.30;1.02;;;;;;;6.65;55.99;99230.16;5050129;28;20132;-64
2023/02/03 03:40:21;;;;;;;4.00;1.08;;;;;;;6.29;57.22;99195.53;5083218;28;20475;-64
2023/02/03 03:43:10;;;;;;;3.47;1.10;;;;;;;6.54;55.25;99235.22;5052518;28;20039;-64
2023/02/03 03:45:57;;;;;;;2.97;1.00;;;;;;;6.51;53.23;99243.19;5065457;28;20080;-65
2023/02/03 03:48:46;;;;;;;2.83;0.85;;;;;;;6.71;52.45;99236.66;5062678;28;20020;-65
2023/02/03 03:51:23;;;;;;;2.72;0.80;;;;;;;6.33;54.31;99196.16;5051258;28;20039;-65
2023/02/03 03:53:51;;;;;;;3.05;0.80;;;;;;;6.58;54.38;99252.16;5081388;28;20035;-65
2023/02/03 03:56:22;;;;;;;3.33;1.00;;;;;;;6.52;55.69;99257.75;5069114;28;20028;-65
2023/02/03 03:58:48;;;;;;;2.63;0.90;;;;;;;6.15;56.20;99211.13;5061985;28;20028;-65
2023/02/03 04:01:15;;;;;;;3.50;1.00;;;;;;;6.40;55.34;99251.66;5050396;28;20020;-65
2023/02/03 04:03:55;;;;;;;2.78;0.80;;;;;;;6.56;51.48;99253.22;5063598;28;20127;-65
2023/02/03 04:06:20;;;;;;;2.75;0.75;;;;;;;6.81;49.25;99254.94;5059339;28;20048;-64
2023/02/03 04:08:46;;;;;;;1.52;0.63;;;;;;;6.96;48.05;99256.50;5080117;28;20028;-65
2023/02/03 04:11:59;;;;;;;2.20;0.68;;;;;;;7.04;51.01;99263.72;5064040;28;20020;-65
2023/02/03 04:13:57;;;;;;;2.22;0.70;;;;;;;7.05;50.04;99268.78;5068068;28;20029;-64
2023/02/03 04:16:22;;;;;;;2.83;0.93;;;;;;;6.95;53.80;99259.19;5063771;28;20624;-65
2023/02/03 04:18:47;;;;;;;4.63;1.05;;;;;;;6.50;58.77;99250.13;5049957;28;20028;-65
2023/02/03 04:21:13;;;;;;;1.80;0.70;;;;;;;6.28;60.44;99247.28;5080375;28;20745;-65
2023/02/03 04:23:38;;;;;;;2.80;0.80;;;;;;;6.20;62.73;99234.88;5078022;28;20043;-64
2023/02/03 04:26:04;;;;;;;2.75;0.93;;;;;;;6.05;63.39;99236.72;5057522;28;20113;-64
2023/02/03 04:28:29;;;;;;;3.30;1.00;;;;;;;6.15;62.34;99231.78;5062154;28;20031;-65
2023/02/03 04:30:55;;;;;;;3.28;0.88;;;;;;;6.20;59.98;99229.72;5084665;28;20047;-64
2023/02/03 04:33:20;;;;;;;2.03;0.70;;;;;;;6.04;58.42;99178.28;5069194;28;20042;-65
2023/02/03 04:35:45;;;;;;;2.40;0.73;;;;;;;6.41;59.87;99231.81;5068221;28;20028;-65
2023/02/03 04:38:11;;;;;;;2.70;0.80;;;;;;;5.97;65.01;99184.78;5080909;28;20036;-65
2023/02/03 04:40:36;;;;;;;4.25;1.10;;;;;;;6.21;67.18;99220.25;5060713;28;20028;-65
2023/02/03 04:43:06;;;;;;;3.47;1.00;;;;;;;5.63;66.17;99160.34;5065266;28;20048;-64
2023/02/03 04:45:31;;;;;;;;;;;;;;;5.89;67.14;99205.91;5063731;28;20532;-64
2023/02/03 04:47:57;;;;;;;2.10;0.75;;;;;;;5.82;65.58;99201.25;5052333;28;20094;-65
2023/02/03 04:50:22;;;;;;;2.35;0.80;;;;;;;5.56;62.07;99152.97;5065384;28;20024;-65
2023/02/03 04:52:48;;;;;;;2.63;0.80;;;;;;;5.88;59.61;99198.28;5086787;28;20019;-65
2023/02/03 04:55:13;;;;;;;2.65;0.90;;;;;;;5.83;60.63;99175.34;5062604;28;20032;-65
2023/02/03 04:57:40;;;;;;;2.67;0.70;;;;;;;6.11;60.91;99210.50;5061815;28;20719;-66
2023/02/03 05:00:06;;;;;;;3.95;0.90;;;;;;;6.06;61.79;99214.31;5083775;28;20070;-65
2023/02/03 05:02:31;;;;;;;2.47;0.90;;;;;;;6.02;62.77;99203.38;5046562;28;20032;-64
2023/02/03 05:04:57;;;;;;;2.10;0.68;;;;;;;5.91;62.31;99193.75;5065495;28;20530;-64
2023/02/03 05:07:22;;;;;;;2.83;0.80;;;;;;;6.02;62.59;99198.19;5047622;28;20020;-64
2023/02/03 05:09:48;;;;;;;2.92;0.93;;;;;;;6.05;64.22;99207.50;5052137;28;20016;-64
2023/02/03 05:12:13;;;;;;;3.90;1.08;;;;;;;5.75;63.58;99165.53;5081344;28;20024;-64
2023/02/03 05:14:39;;;;;;;3.25;1.10;;;;;;;5.93;62.96;99204.78;5065306;28;20039;-64
2023/02/03 05:17:04;;;;;;;4.43;1.05;;;;;;;5.97;62.68;99201.09;5083002;28;20024;-64
2023/02/03 05:19:30;;;;;;;3.83;0.85;;;;;;;6.07;61.12;99210.81;5065407;28;20028;-64
2023/02/03 05:21:55;;;;;;;2.70;0.82;;;;;;;6.27;59.77;99217.25;5060776;28;20540;-64
2023/02/03 05:24:21;;;;;;;4.05;1.35;;;;;;;6.29;58.16;99225.72;5073863;28;20032;-64
2023/02/03 05:26:46;;;;;;;2.60;0.77;;;;;;;6.20;57.95;99221.97;5062777;28;20020;-64
2023/02/03 05:29:11;;;;;;;2.47;0.77;;;;;;;6.23;57.92;99221.78;5081508;28;20028;-64
2023/02/03 05:31:37;;;;;;;3.80;1.02;;;;;;;6.29;56.75;99228.28;5085175;28;20395;-64
2023/02/03 05:34:02;;;;;;;4.55;0.90;;;;;;;6.35;57.59;99228.72;5077808;28;20036;-64
2023/02/03 05:36:28;;;;;;;2.95;0.90;;;;;;;6.27;60.59;99232.75;5060779;28;20024;-64
2023/02/03 05:38:53;;;;;;;1.92;0.70;;;;;;;5.88;60.29;99200.84;5057214;28;20020;-66
2023/02/03 05:44:03;;;;;;;4.70;1.10;;;;;;;5.83;63.19;99232.13;5072523;28;20041;-64
2023/02/03 05:46:28;;;;;;;2.85;0.90;;;;;;;5.61;62.56;99213.78;5083892;28;20024;-64
2023/02/03 05:48:54;;;;;;;3.03;0.80;;;;;;;5.75;62.94;99231.78;5047032;28;20031;-64
2023/02/03 05:51:19;;;;;;;4.05;0.88;;;;;;;5.70;61.53;99231.25;5083169;28;20923;-64
2023/02/03 05:53:45;;;;;;;2.60;0.80;;;;;;;5.62;63.08;99225.75;5068472;28;20039;-64
2023/02/03 05:56:10;;;;;;;2.88;0.90;;;;;;;5.52;65.35;99218.59;5063296;28;20036;-64
2023/02/03 05:58:36;;;;;;;2.67;0.80;;;;;;;5.66;64.34;99234.94;5081048;28;20028;-64
2023/02/03 06:01:01;;;;;;;2.75;0.80;;;;;;;5.34;65.31;99175.94;5062149;28;20474;-65
2023/02/03 06:03:26;;;;;;;3.00;0.75;;;;;;;5.54;62.72;99215.94;5062161;28;20028;-64
2023/02/03 06:05:52;;;;;;;2.53;0.77;;;;;;;5.58;61.99;99218.22;5085101;28;21094;-64
2023/02/03 06:08:17;;;;;;;4.22;0.82;;;;;;;5.66;57.86;99214.28;5078996;28;20116;-64
2023/02/03 06:10:43;;;;;;;2.42;0.73;;;;;;;5.88;54.25;99199.09;5045868;28;20034;-64
2023/02/03 06:13:10;;;;;;;2.95;0.70;;;;;;;6.46;51.26;99198.75;5066882;28;20023;-64
2023/02/03 06:15:35;;;;;;;2.67;0.70;;;;;;;6.79;48.24;99197.34;5053405;28;20503;-64
2023/02/03 06:18:01;;;;;;;1.35;0.50;;;;;;;7.00;49.33;99206.22;5062184;28;20034;-64
2023/02/03 06:20:27;;;;;;;1.35;0.60;;;;;;;6.12;54.50;99113.22;5066856;28;20034;-64
2023/02/03 06:22:52;;;;;;;1.38;0.52;;;;;;;6.49;51.56;99198.53;5045551;28;20112;-64
2023/02/03 06:25:17;;;;;;;1.73;0.63;;;;;;;6.34;57.90;99196.06;5076662;28;20867;-64
2023/02/03 06:27:43;;;;;;;2.90;0.70;;;;;;;6.09;61.86;99193.47;5064620;28;20047;-64
2023/02/03 06:30:10;;;;;;;2.28;0.68;;;;;;;5.87;64.64;99200.00;5065737;28;20054;-64
2023/02/03 06:32:36;;;;;;;2.80;0.80;;;;;;;5.55;66.36;99164.25;5059508;28;20035;-64
2023/02/03 06:35:01;;;;;;;2.90;0.88;;;;;;;5.89;63.70;99205.06;5065973;28;20036;-64
2023/02/03 06:37:27;;;;;;;2.63;0.90;;;;;;;5.87;63.39;99217.25;5058223;28;20050;-67
2023/02/03 06:39:52;;;;;;;4.38;0.95;;;;;;;5.71;62.91;99199.34;5080002;28;21915;-64
2023/02/03 06:42:18;;;;;;;3.30;1.00;;;;;;;5.81;66.23;99226.22;5074095;28;20871;-64
2023/02/03 06:44:43;;;;;;;2.13;0.70;;;;;;;5.83;66.89;99239.03;5068344;28;20028;-64
2023/02/03 06:47:09;;;;;;;2.47;0.90;;;;;;;5.72;68.61;99230.22;5078439;28;20499;-64
2023/02/03 06:49:34;;;;;;;2.50;0.80;;;;;;;5.69;69.67;99221.84;5067740;28;20403;-64
2023/02/03 06:52:00;;;;;;;3.90;1.00;;;;;;;5.71;65.65;99235.47;5084876;28;20028;-64
2023/02/03 06:54:25;;;;;;;2.42;0.70;;;;;;;5.82;58.48;99232.22;5062606;28;20551;-64
2023/02/03 06:56:51;;;;;;;2.25;0.70;;;;;;;6.17;52.17;99232.53;5063873;28;20039;-64
2023/02/03 06:59:17;;;;;;;2.83;0.60;;;;;;;6.47;50.98;99236.56;5082640;28;20020;-65
2023/02/03 07:01:43;;;;;;;3.15;0.90;;;;;;;6.67;45.99;99238.63;5067380;28;20567;-64
2023/02/03 07:04:09;;;;;;;1.58;0.50;;;;;;;6.93;47.59;99239.41;5066585;28;20027;-64
2023/02/03 07:06:34;;;;;;;2.38;0.80;;;;;;;6.88;49.64;99235.50;5064731;28;20020;-64
2023/02/03 07:09:01;;;;;;;2.83;0.90;;;;;;;6.74;52.64;99231.28;5084343;28;20035;-64
2023/02/03 07:11:27;;;;;;;2.30;0.57;;;;;;;6.59;53.23;99234.91;5053538;28;20131;-64
2023/02/03 07:13:52;;;;;;;3.45;1.02;;;;;;;6.44;55.04;99242.75;5066579;28;20704;-64
2023/02/03 07:16:18;;;;;;;4.75;1.20;;;;;;;6.40;57.33;99258.56;5070720;28;20679;-64
2023/02/03 07:18:44;;;;;;;4.57;1.50;;;;;;;6.06;58.02;99214.31;5068738;28;20043;-64
2023/02/03 07:21:09;;;;;;;3.40;1.20;;;;;;;6.23;58.96;99249.38;5078530;28;20038;-64
2023/02/03 07:23:35;;;;;;;5.22;1.00;;;;;;;5.93;59.22;99222.00;5063836;28;21104;-64
2023/02/03 07:26:05;;;;;;;3.75;1.20;;;;;;;6.08;59.41;99285.59;5034007;28;20051;-63
2023/02/03 07:28:31;;;;;;;3.35;1.00;;;;;;;6.10;60.00;99299.22;5069173;28;20035;-64
2023/02/03 07:30:57;;;;;;;3.22;1.10;;;;;;;5.99;59.52;99290.50;5084261;28;20032;-64
2023/02/03 07:33:22;;;;;;;3.33;1.25;;;;;;;6.05;59.57;99297.88;5062911;28;20032;-64
2023/02/03 07:35:52;;;;;;;3.97;1.27;;;;;;;6.04;59.47;99298.78;5067090;28;20503;-64
2023/02/03 07:38:17;;;;;;;;;;;;;;;6.06;60.60;99307.25;5090385;28;20031;-64
2023/02/03 07:40:43;;;;;;;4.38;1.05;;;;;;;5.80;60.11;99263.28;5052648;28;19916;-64
2023/02/03 07:43:08;;;;;;;2.83;1.00;;;;;;;6.01;60.59;99314.50;5066637;28;20036;-63
2023/02/03 07:45:34;;;;;;;4.03;1.00;;;;;;;6.10;61.16;99316.50;5072228;28;20024;-63
2023/02/03 07:47:59;;;;;;;4.03;1.20;;;;;;;6.11;60.61;99312.97;5075403;28;20094;-64
2023/02/03 07:50:25;;;;;;;6.45;2.05;;;;;;;6.05;60.57;99308.19;5064663;28;20102;-64
2023/02/03 07:52:51;;;;;;;6.22;1.25;;;;;;;6.12;59.95;99312.88;5070897;28;20031;-64
2023/02/03 07:55:16;;;;;;;5.28;1.23;;;;;;;5.95;60.43;99274.34;5063292;28;20615;-64
2023/02/03 07:57:44;;;;;;;5.55;1.30;;;;;;;6.20;60.71;99314.13;5062902;28;20067;-64
2023/02/03 08:00:11;;;;;;;4.45;1.30;;;;;;;6.22;60.48;99315.66;5078599;28;20024;-65
2023/02/03 08:02:37;;;;;;;12.38;1.83;;;;;;;5.99;60.67;99306.84;5044533;28;20394;-67
2023/02/03 08:05:02;;;;;;;9.25;2.13;;;;;;;6.07;60.75;99320.06;5085431;28;20028;-68
2023/02/03 08:07:28;;;;;;;7.03;1.80;;;;;;;5.92;61.70;99313.28;5045202;28;20029;-68
2023/02/03 08:09:53;;;;;;;8.52;1.75;;;;;;;5.95;61.97;99326.00;5065735;28;20024;-67
2023/02/03 08:12:19;;;;;;;5.55;1.75;;;;;;;5.95;63.11;99320.81;5067183;28;20372;-68
2023/02/03 08:14:44;;;;;;;7.32;2.13;;;;;;;5.55;62.45;99320.78;5041795;28;20033;-68
2023/02/03 08:17:09;;;;;;;8.80;2.22;;;;;;;5.65;62.04;99323.59;5065362;28;20451;-67
2023/02/03 08:19:35;;;;;;;6.68;2.00;;;;;;;5.59;62.87;99320.47;5068153;28;20039;-67
2023/02/03 08:22:00;;;;;;;7.38;1.90;;;;;;;5.70;63.32;99324.16;5078605;28;20024;-68
2023/02/03 08:24:26;;;;;;;6.57;1.92;;;;;;;5.83;62.98;99337.09;5067373;28;20545;-68
2023/02/03 08:26:53;;;;;;;8.10;2.42;;;;;;;5.86;63.19;99330.00;5049437;28;20067;-68
2023/02/03 08:29:19;;;;;;;7.25;2.70;;;;;;;5.62;62.74;99278.16;5047762;28;20016;-68
2023/02/03 08:31:44;;;;;;;9.07;3.08;;;;;;;5.76;63.60;99326.34;5062439;28;20032;-68
2023/02/03 08:34:10;;;;;;;7.05;2.60;;;;;;;5.72;63.58;99324.88;5052221;28;20039;-68
2023/02/03 08:36:38;;;;;;;9.75;2.20;;;;;;;5.72;64.29;99325.69;5049107;28;20036;-67
2023/02/03 08:39:07;;;;;;;7.97;1.88;;;;;;;5.66;64.85;99338.16;5078648;28;20028;-68
2023/02/03 08:41:33;;;;;;;5.05;1.63;;;;;;;5.68;65.26;99336.31;5075205;28;20127;-68
2023/02/03 08:43:59;;;;;;;9.75;2.40;;;;;;;5.51;64.69;99319.28;5064013;28;20097;-68
2023/02/03 08:46:24;;;;;;;10.23;2.70;;;;;;;5.54;64.87;99313.94;5056507;28;20510;-68
2023/02/03 08:48:51;;;;;;;6.85;2.50;;;;;;;5.44;66.52;99312.84;5065766;28;20027;-68
2023/02/03 08:51:18;;;;;;;9.13;2.90;;;;;;;5.49;64.30;99326.31;5055894;28;20028;-68
2023/02/03 08:53:44;;;;;;;7.93;2.50;;;;;;;5.43;65.36;99313.78;5063169;28;20024;-67
2023/02/03 08:56:11;;;;;;;7.68;2.47;;;;;;;5.57;66.05;99322.31;5062558;28;20843;-68
2023/02/03 08:58:37;;;;;;;9.10;2.55;;;;;;;5.63;65.51;99322.88;5070327;28;20027;-68
2023/02/03 09:01:08;;;;;;;7.13;2.55;;;;;;;5.52;66.07;99324.38;5079977;28;20036;-67
2023/02/03 09:03:34;;;;;;;8.13;2.60;;;;;;;5.45;65.76;99314.53;5060925;28;20039;-68
2023/02/03 09:05:59;;;;;;;9.52;2.88;;;;;;;5.35;66.95;99281.56;5076612;28;20028;-68
2023/02/03 09:08:25;;;;;;;8.18;2.17;;;;;;;5.56;69.12;99325.81;5082473;28;20379;-67
2023/02/03 09:10:50;;;;;;;5.68;2.10;;;;;;;5.32;72.33;99309.28;5078442;28;20046;-67
2023/02/03 09:13:15;;;;;;;7.78;2.15;;;;;;;5.38;74.60;99317.50;5069275;28;20031;-68
2023/02/03 09:15:42;;;;;;;6.28;2.30;;;;;;;5.24;78.25;99314.06;5063647;28;20036;-65
2023/02/03 09:18:08;;;;;;;6.47;2.63;;;;;;;5.34;78.35;99315.19;5063535;28;20486;-66
2023/02/03 09:20:34;;;;;;;5.18;1.90;;;;;;;5.12;81.64;99271.84;5067906;28;20068;-65
2023/02/03 09:23:01;;;;;;;4.45;1.60;;;;;;;5.34;81.76;99290.22;5062849;28;20118;-65
2023/02/03 09:25:27;;;;;;;4.78;1.65;;;;;;;5.43;80.95;99290.59;5050673;28;20028;-65
2023/02/03 09:27:52;;;;;;;4.65;1.52;;;;;;;5.13;75.73;99255.44;5062853;28;21503;-65
2023/02/03 09:30:17;;;;;;;8.27;3.33;;;;;;;5.39;72.23;99301.06;5065251;28;20399;-66
2023/02/03 09:32:47;;;;;;;6.72;2.08;;;;;;;5.20;73.20;99259.28;5049646;28;20028;-67
2023/02/03 09:35:13;;;;;;;;;;;;;;;5.47;71.45;99310.91;5044811;28;20028;-65
2023/02/03 09:37:38;;;;;;;6.55;2.92;;;;;;;5.48;68.48;99304.03;5048987;28;19962;-66
2023/02/03 09:40:04;;;;;;;4.90;2.13;;;;;;;5.30;65.28;99275.03;5063399;28;20494;-64
2023/02/03 09:42:54;;;;;;;4.13;1.30;;;;;;;5.69;63.53;99315.56;5066955;28;20881;-66
2023/02/03 09:45:21;;;;;;;;;;;;;;;5.79;62.07;99310.66;5062061;28;20020;-67
2023/02/03 09:47:52;;;;;;;4.80;1.20;;;;;;;5.80;62.44;99307.16;5065005;28;20345;-65
2023/02/03 09:50:24;;;;;;;7.13;1.25;;;;;;;5.50;64.24;99255.75;5058288;28;20032;-66
2023/02/03 09:52:50;;;;;;;7.85;1.70;;;;;;;5.74;64.50;99315.28;5048035;28;20090;-65
2023/02/03 09:55:35;;;;;;;8.07;3.78;;;;;;;5.82;62.36;99319.97;5066587;28;20101;-65
2023/02/03 09:58:11;;;;;;;7.22;2.83;;;;;;;5.88;60.14;99298.94;5068320;28;20090;-65
2023/02/03 10:00:42;;;;;;;5.70;1.40;;;;;;;6.28;57.59;99317.03;5063183;28;20701;-66
2023/02/03 10:03:16;;;;;;;4.20;1.25;;;;;;;6.46;56.76;99295.19;5059548;28;20088;-65
2023/02/03 10:06:21;;;;;;;3.60;1.27;;;;;;;6.73;57.61;99304.56;5065497;28;20031;-65
2023/02/03 10:09:24;;;;;;;3.30;0.85;;;;;;;7.07;55.03;99295.34;5048791;28;20040;-65
2023/02/03 10:12:24;;;;;;;4.95;1.75;;;;;;;7.13;57.35;99291.53;4948557;28;20039;-65
2023/02/03 10:15:00;;;;;;;2.60;0.90;;;;;;;7.31;57.29;99287.66;5075784;28;20033;-66
2023/02/03 10:17:31;;;;;;;3.78;1.17;;;;;;;7.06;58.60;99242.00;5048459;28;20101;-65
2023/02/03 10:20:16;;;;;;;3.30;0.90;;;;;;;7.50;59.07;99276.00;5078454;28;20118;-64
2023/02/03 10:22:57;;;;;;;6.38;1.10;;;;;;;7.60;57.17;99277.00;5077599;28;20062;-65
2023/02/03 10:25:23;;;;;;;5.28;1.33;;;;;;;7.72;56.14;99277.06;5079221;28;20028;-65
2023/02/03 10:27:54;;;;;;;2.47;0.80;;;;;;;7.70;54.37;99274.56;5079153;28;20024;-65
2023/02/03 10:30:22;;;;;;;5.20;1.60;;;;;;;7.75;51.15;99289.78;5077764;28;20535;-65
2023/02/03 10:32:55;;;;;;;3.60;1.50;;;;;;;7.74;50.98;99276.03;5046007;28;20548;-65
2023/02/03 10:35:30;;;;;;;3.28;0.90;;;;;;;7.70;48.72;99287.53;5061300;28;20063;-65
2023/02/03 10:37:57;;;;;;;2.95;0.95;;;;;;;7.36;48.97;99232.19;5061022;28;20523;-65
2023/02/03 10:40:23;;;;;;;2.83;0.90;;;;;;;7.67;48.44;99280.00;5081391;28;20028;-66
2023/02/03 10:45:37;;;;;;;4.18;1.48;;;;;;;7.83;47.66;99277.97;5085630;28;20046;-65
2023/02/03 10:48:03;;;;;;;4.18;0.93;;;;;;;8.07;47.22;99272.75;5076494;28;20047;-64
2023/02/03 10:50:32;;;;;;;4.22;1.80;;;;;;;8.26;45.45;99271.38;5066822;28;20637;-66
2023/02/03 10:53:22;;;;;;;3.87;1.50;;;;;;;8.53;43.64;99271.13;5059796;28;20027;-65
2023/02/03 10:55:50;;;;;;;6.07;2.40;;;;;;;8.73;42.82;99267.03;5036260;28;20140;-65
2023/02/03 10:58:23;;;;;;;5.32;1.70;;;;;;;8.87;42.70;99262.53;5044818;28;20020;-64
2023/02/03 11:00:55;;;;;;;5.03;1.13;;;;;;;9.12;43.24;99264.88;5046827;28;20115;-65
2023/02/03 11:03:30;;;;;;;4.88;1.30;;;;;;;9.14;44.07;99250.03;5061434;28;20021;-65
2023/02/03 11:06:22;;;;;;;4.70;1.55;;;;;;;9.47;43.12;99248.31;5047041;28;20541;-64
2023/02/03 11:08:49;;;;;;;7.70;1.67;;;;;;;9.76;42.94;99250.34;5060730;28;20044;-64
2023/02/03 11:11:20;;;;;;;5.25;1.30;;;;;;;9.81;42.76;99230.03;5069349;28;20510;-65
2023/02/03 11:13:51;;;;;;;4.43;1.10;;;;;;;9.64;41.95;99189.88;5049754;28;20028;-65
2023/02/03 11:16:21;;;;;;;3.17;0.90;;;;;;;10.20;40.58;99220.75;5049781;28;20164;-64
2023/02/03 11:19:17;;;;;;;2.40;0.70;;;;;;;10.12;43.45;99217.13;5076394;28;20725;-64
2023/02/03 11:22:01;;;;;;;3.25;1.42;;;;;;;9.81;44.62;99211.84;5049774;28;20395;-65
2023/02/03 11:24:29;;;;;;;2.88;0.80;;;;;;;9.67;45.81;99222.53;5058625;28;20050;-65
2023/02/03 11:27:15;;;;;;;3.45;0.90;;;;;;;9.56;47.47;99216.44;5049564;28;20035;-65
2023/02/03 11:29:46;;;;;;;1.85;0.60;;;;;;;9.50;46.67;99218.72;5082532;28;20413;-65
2023/02/03 11:32:17;;;;;;;2.15;0.65;;;;;;;9.49;45.70;99209.25;5066403;28;20020;-63
2023/02/03 11:34:57;;;;;;;2.55;0.70;;;;;;;9.51;45.58;99189.19;5081724;28;20036;-64
2023/02/03 11:37:32;;;;;;;2.17;0.63;;;;;;;9.61;43.17;99193.50;5082653;28;20428;-65
2023/02/03 11:40:07;;;;;;;4.35;1.10;;;;;;;9.75;42.21;99189.00;5065297;28;20032;-63
2023/02/03 11:42:34;;;;;;;5.32;1.30;;;;;;;9.84;42.32;99177.00;5083482;28;20067;-65
2023/02/03 11:45:27;;;;;;;5.70;1.40;;;;;;;10.17;42.55;99179.41;5084968;28;20123;-63
2023/02/03 11:48:00;;;;;;;2.83;0.93;;;;;;;10.60;39.44;99163.78;5067247;28;20028;-64
2023/02/03 11:50:53;;;;;;;3.08;0.80;;;;;;;10.37;40.79;99143.19;5064874;28;20050;-65
2023/02/03 11:53:31;;;;;;;3.83;0.75;;;;;;;10.41;40.42;99154.94;5057884;28;20435;-65
2023/02/03 11:56:22;;;;;;;4.38;0.90;;;;;;;10.22;41.53;99110.63;5078565;28;20089;-64